Time;durP1;ratioP1;P1;durP2;ratioP2;P2;SDS_P1;SDS_P2;PMS_P1;PMS_P2;Temp;Humidity;BMP_temperature;BMP_pressure;BME280_temperature;BME280_humidity;BME280_pressure;Samples;Min_cycle;Max_cycle;Signal;HPM_P1;HPM_P2
2023/05/28 00:00:34;;;;;;;7.35;2.85;;;14.50;99.90;;;;;;5050955;28;20106;-49
2023/05/28 00:03:00;;;;;;;7.85;2.40;;;14.50;99.90;;;;;;5051247;28;20485;-49
2023/05/28 00:05:26;;;;;;;6.00;2.60;;;14.40;99.90;;;;;;5050599;28;20072;-49
2023/05/28 00:07:52;;;;;;;7.60;3.10;;;14.40;99.90;;;;;;5051143;28;20033;-50
2023/05/28 00:10:17;;;;;;;6.38;2.88;;;14.30;99.90;;;;;;5050895;28;20036;-49
2023/05/28 00:12:43;;;;;;;7.45;2.40;;;14.30;99.90;;;;;;5051365;28;20040;-51
2023/05/28 00:15:09;;;;;;;7.20;2.90;;;14.30;99.90;;;;;;5050823;28;20038;-48
2023/05/28 00:17:35;;;;;;;7.93;2.92;;;14.20;99.90;;;;;;5051240;28;20090;-48
2023/05/28 00:20:01;;;;;;;7.75;2.60;;;14.20;99.90;;;;;;5050987;28;20033;-47
2023/05/28 00:22:26;;;;;;;8.00;3.08;;;14.20;99.90;;;;;;5051306;28;20036;-47
2023/05/28 00:24:52;;;;;;;6.85;2.85;;;14.10;99.90;;;;;;5054826;28;20120;-47
2023/05/28 00:27:18;;;;;;;9.65;3.30;;;14.10;99.90;;;;;;5055210;28;20037;-46
2023/05/28 00:29:43;;;;;;;7.45;2.63;;;14.00;99.90;;;;;;5054977;28;20029;-49
2023/05/28 00:32:10;;;;;;;8.48;2.88;;;14.00;99.90;;;;;;5036946;28;20021;-48
2023/05/28 00:34:35;;;;;;;7.55;2.97;;;13.90;99.90;;;;;;5036586;28;20039;-49
2023/05/28 00:37:01;;;;;;;7.65;2.55;;;13.90;99.90;;;;;;5036877;28;20112;-48
2023/05/28 00:39:28;;;;;;;7.55;2.92;;;13.80;99.90;;;;;;5054934;28;20068;-47
2023/05/28 00:42:02;;;;;;;9.13;3.28;;;13.70;99.90;;;;;;5054635;28;20064;-47
2023/05/28 00:44:27;;;;;;;7.80;2.70;;;13.70;99.90;;;;;;5054394;28;20032;-49
2023/05/28 00:46:54;;;;;;;7.50;3.15;;;13.60;99.90;;;;;;5036655;28;20032;-47
2023/05/28 00:49:21;;;;;;;6.88;2.88;;;13.60;99.90;;;;;;5036594;28;20025;-49
2023/05/28 00:51:48;;;;;;;7.18;2.97;;;13.60;99.90;;;;;;5054252;28;20393;-46
2023/05/28 00:54:14;;;;;;;7.82;2.72;;;13.60;99.90;;;;;;5036187;28;20037;-48
2023/05/28 00:56:40;;;;;;;7.88;2.85;;;13.50;99.90;;;;;;5054390;28;20033;-50
2023/05/28 00:59:06;;;;;;;9.65;3.40;;;13.50;99.90;;;;;;5036475;28;20029;-47
2023/05/28 01:01:32;;;;;;;6.68;3.00;;;13.50;99.90;;;;;;5054125;28;20420;-50
2023/05/28 01:03:58;;;;;;;11.45;3.15;;;13.50;99.90;;;;;;5054030;28;20044;-48
2023/05/28 01:06:24;;;;;;;5.60;3.03;;;13.50;99.90;;;;;;5054273;28;20025;-51
2023/05/28 01:08:50;;;;;;;7.20;2.75;;;13.40;99.90;;;;;;5054309;28;20466;-49
2023/05/28 01:11:21;;;;;;;6.95;2.83;;;13.30;99.90;;;;;;5035896;28;20366;-47
2023/05/28 01:13:47;;;;;;;7.68;2.97;;;13.30;99.90;;;;;;5053705;28;20478;-47
2023/05/28 01:16:14;;;;;;;7.55;3.30;;;13.30;99.90;;;;;;5035866;28;20098;-50
2023/05/28 01:18:41;;;;;;;7.40;3.08;;;13.20;99.90;;;;;;5053870;28;20031;-50
2023/05/28 01:21:08;;;;;;;9.20;3.25;;;13.20;99.90;;;;;;5035769;28;20029;-48
2023/05/28 01:23:48;;;;;;;7.78;3.30;;;13.10;99.90;;;;;;5035719;28;20481;-52
2023/05/28 01:26:15;;;;;;;9.60;3.20;;;13.10;99.90;;;;;;5053871;28;20450;-51
2023/05/28 01:28:45;;;;;;;7.82;3.15;;;13.00;99.90;;;;;;5035628;28;20048;-51
2023/05/28 01:31:12;;;;;;;6.80;3.40;;;12.90;99.90;;;;;;5035562;28;20465;-51
2023/05/28 01:33:41;;;;;;;8.93;3.28;;;12.90;99.90;;;;;;5053434;28;20388;-51
2023/05/28 01:36:21;;;;;;;8.68;3.22;;;12.80;99.90;;;;;;5034955;28;20052;-50
2023/05/28 01:38:49;;;;;;;9.13;3.43;;;12.80;99.90;;;;;;5035603;28;20082;-50
2023/05/28 01:41:16;;;;;;;6.30;2.93;;;12.70;99.90;;;;;;5035245;28;20056;-49
2023/05/28 01:43:43;;;;;;;7.95;3.28;;;12.70;99.90;;;;;;5035425;28;20131;-49
2023/05/28 01:46:09;;;;;;;5.93;3.15;;;12.60;99.90;;;;;;5053415;28;20029;-48
2023/05/28 01:48:36;;;;;;;6.70;2.80;;;12.50;99.90;;;;;;5035130;28;20033;-50
2023/05/28 01:51:03;;;;;;;6.37;2.97;;;12.50;99.90;;;;;;5035032;28;20029;-47
2023/05/28 01:53:29;;;;;;;7.20;3.00;;;12.40;99.90;;;;;;5053601;28;20025;-48
2023/05/28 01:55:55;;;;;;;7.77;3.40;;;12.40;99.90;;;;;;5034764;28;20036;-48
2023/05/28 01:58:23;;;;;;;7.30;3.22;;;12.40;99.90;;;;;;5035191;28;20025;-47
2023/05/28 02:01:29;;;;;;;8.77;3.35;;;12.30;99.90;;;;;;5034918;28;20028;-49
2023/05/28 02:03:59;;;;;;;5.33;2.57;;;12.30;99.90;;;;;;5034809;28;20029;-47
2023/05/28 02:06:29;;;;;;;9.60;3.40;;;12.20;99.90;;;;;;5052923;28;20033;-48
2023/05/28 02:08:56;;;;;;;5.47;3.07;;;12.10;99.90;;;;;;5052954;28;20040;-52
2023/05/28 02:11:22;;;;;;;9.13;3.53;;;12.10;99.90;;;;;;5034668;28;20025;-50
2023/05/28 02:13:52;;;;;;;;;;;12.10;99.90;;;;;;5035136;28;20029;-48
2023/05/28 02:16:18;;;;;;;6.90;3.10;;;12.10;99.90;;;;;;5034986;28;19908;-48
2023/05/28 02:18:45;;;;;;;6.83;3.53;;;12.10;99.90;;;;;;5052604;28;20135;-47
2023/05/28 02:21:11;;;;;;;7.80;3.23;;;12.10;99.90;;;;;;5034670;28;20024;-47
2023/05/28 02:23:43;;;;;;;7.90;3.97;;;12.10;99.90;;;;;;5034306;28;20132;-49
2023/05/28 02:26:09;;;;;;;8.33;3.20;;;12.00;99.90;;;;;;5034467;28;20568;-47
2023/05/28 02:28:35;;;;;;;9.70;3.90;;;12.00;99.90;;;;;;5052574;28;20060;-49
2023/05/28 02:31:01;;;;;;;8.60;4.07;;;12.00;99.90;;;;;;5052260;28;20079;-47
2023/05/28 02:33:26;;;;;;;8.30;3.57;;;11.90;99.90;;;;;;5034257;28;20120;-47
2023/05/28 02:35:52;;;;;;;9.03;3.53;;;11.90;99.90;;;;;;5034199;28;20025;-48
2023/05/28 02:38:18;;;;;;;11.10;3.70;;;11.80;99.90;;;;;;5052319;28;20116;-47
2023/05/28 02:40:44;;;;;;;9.43;3.60;;;11.90;99.90;;;;;;5033881;28;20137;-50
2023/05/28 02:43:10;;;;;;;7.53;3.40;;;11.80;99.90;;;;;;5034225;28;20027;-48
2023/05/28 02:45:35;;;;;;;7.30;3.13;;;11.70;99.90;;;;;;5033414;28;20033;-47
2023/05/28 02:48:01;;;;;;;8.17;2.90;;;11.60;99.90;;;;;;5051396;28;20564;-47
2023/05/28 02:50:27;;;;;;;7.17;3.33;;;11.50;99.90;;;;;;5033827;28;20494;-50
2023/05/28 02:53:05;;;;;;;9.43;3.63;;;11.40;99.90;;;;;;5033924;28;20021;-50
2023/05/28 02:55:31;;;;;;;10.23;4.10;;;11.30;99.90;;;;;;5033861;28;20029;-51
2023/05/28 02:57:57;;;;;;;8.23;3.50;;;11.20;99.90;;;;;;5051946;28;20028;-47
2023/05/28 03:00:23;;;;;;;8.63;3.17;;;11.10;99.90;;;;;;5033446;28;20124;-48
2023/05/28 03:02:49;;;;;;;6.50;3.10;;;11.00;99.90;;;;;;5033652;28;20044;-48
2023/05/28 03:05:16;;;;;;;10.37;3.53;;;11.00;99.90;;;;;;5033439;28;20031;-50
2023/05/28 03:07:42;;;;;;;7.97;3.63;;;11.00;99.90;;;;;;5033688;28;20029;-53
2023/05/28 03:10:08;;;;;;;10.10;3.80;;;11.00;99.90;;;;;;5033505;28;20473;-50
2023/05/28 03:12:36;;;;;;;8.23;3.90;;;11.00;99.90;;;;;;5033624;28;20028;-52
2023/05/28 03:15:02;;;;;;;9.97;3.70;;;11.10;99.90;;;;;;5033348;28;20040;-49
2023/05/28 03:17:27;;;;;;;10.07;3.70;;;11.20;99.90;;;;;;5033676;28;20362;-52
2023/05/28 03:19:53;;;;;;;10.80;4.47;;;11.20;99.90;;;;;;5033404;28;20058;-52
2023/05/28 03:22:20;;;;;;;9.53;3.27;;;11.20;99.90;;;;;;5033157;28;20307;-49
2023/05/28 03:24:46;;;;;;;7.47;3.50;;;11.30;99.90;;;;;;5032320;28;20021;-51
2023/05/28 03:27:13;;;;;;;10.37;3.93;;;11.30;99.90;;;;;;5050541;28;20036;-48
2023/05/28 03:29:39;;;;;;;8.60;3.90;;;11.30;99.90;;;;;;5032987;28;20021;-52
2023/05/28 03:32:24;;;;;;;8.80;3.43;;;11.30;99.90;;;;;;5032887;28;20033;-50
2023/05/28 03:34:50;;;;;;;11.60;4.03;;;11.30;99.90;;;;;;5032724;28;20512;-51
2023/05/28 03:37:21;;;;;;;8.60;3.60;;;11.20;99.90;;;;;;5032897;28;20036;-53
2023/05/28 03:39:47;;;;;;;6.60;3.30;;;11.30;99.90;;;;;;5032656;28;20029;-52
2023/05/28 03:42:13;;;;;;;9.90;3.53;;;11.30;99.90;;;;;;5032358;28;20037;-52
2023/05/28 03:44:39;;;;;;;9.80;4.10;;;11.30;99.90;;;;;;5032501;28;20029;-49
2023/05/28 03:47:06;;;;;;;8.70;3.17;;;11.20;99.90;;;;;;5050638;28;20021;-48
2023/05/28 03:49:32;;;;;;;10.77;4.03;;;11.30;99.90;;;;;;5032769;28;20422;-47
2023/05/28 03:51:58;;;;;;;8.80;3.60;;;11.40;99.90;;;;;;5032520;28;20573;-47
2023/05/28 03:54:26;;;;;;;9.33;4.20;;;11.40;99.90;;;;;;5032371;28;20025;-47
2023/05/28 03:56:52;;;;;;;9.03;4.07;;;11.40;99.90;;;;;;5032505;28;20036;-47
2023/05/28 03:59:20;;;;;;;8.40;3.73;;;11.50;99.90;;;;;;5032391;28;20120;-47
2023/05/28 04:01:46;;;;;;;9.03;3.60;;;11.50;99.90;;;;;;5032334;28;20082;-48
2023/05/28 04:04:12;;;;;;;8.07;3.70;;;11.60;99.90;;;;;;5032273;28;20037;-47
2023/05/28 04:06:38;;;;;;;6.77;3.70;;;11.60;99.90;;;;;;5032505;28;20036;-48
2023/05/28 04:09:05;;;;;;;8.57;3.83;;;11.60;99.90;;;;;;5032408;28;20036;-48
2023/05/28 04:11:34;;;;;;;9.47;4.00;;;11.70;99.90;;;;;;5032153;28;20113;-48
2023/05/28 04:14:01;;;;;;;10.63;4.20;;;11.70;99.90;;;;;;5032212;28;20029;-50
2023/05/28 04:16:27;;;;;;;9.93;4.50;;;11.70;99.90;;;;;;5032502;28;20032;-47
2023/05/28 04:18:53;;;;;;;10.03;4.13;;;11.70;99.90;;;;;;5050346;28;20028;-48
2023/05/28 04:21:20;;;;;;;10.73;4.73;;;11.70;99.90;;;;;;5032162;28;20052;-49
2023/05/28 04:23:46;;;;;;;8.90;3.80;;;11.70;99.90;;;;;;5032024;28;20120;-49
2023/05/28 04:26:12;;;;;;;8.17;4.03;;;11.70;99.90;;;;;;5032636;28;20036;-48
2023/05/28 04:28:39;;;;;;;9.23;3.90;;;11.80;99.90;;;;;;5032422;28;20076;-50
2023/05/28 04:31:04;;;;;;;9.50;4.23;;;11.80;99.90;;;;;;5050034;28;20025;-48
2023/05/28 04:33:31;;;;;;;9.03;4.40;;;11.80;99.90;;;;;;5050161;28;20029;-48
2023/05/28 04:36:01;;;;;;;8.77;4.33;;;11.90;99.90;;;;;;5032105;28;20502;-48
2023/05/28 04:38:29;;;;;;;11.37;3.97;;;11.90;99.90;;;;;;5032115;28;20493;-49
2023/05/28 04:40:55;;;;;;;9.00;3.70;;;12.00;99.90;;;;;;5032189;28;20032;-49
2023/05/28 04:43:21;;;;;;;10.03;4.63;;;12.00;99.90;;;;;;5032136;28;20493;-48
2023/05/28 04:45:48;;;;;;;10.90;4.47;;;12.10;99.90;;;;;;5049887;28;20063;-48
2023/05/28 04:48:15;;;;;;;10.77;4.27;;;12.20;99.90;;;;;;5032223;28;20025;-48
2023/05/28 04:50:43;;;;;;;10.03;4.47;;;12.20;99.90;;;;;;5031805;28;20120;-50
2023/05/28 04:53:09;;;;;;;9.47;4.00;;;12.30;99.90;;;;;;5032006;28;20182;-49
2023/05/28 04:55:34;;;;;;;7.73;4.23;;;12.30;99.90;;;;;;5031947;28;20609;-46
2023/05/28 04:58:00;;;;;;;8.73;4.20;;;12.40;99.90;;;;;;5032086;28;20508;-49
2023/05/28 05:00:28;;;;;;;9.33;4.43;;;12.40;99.90;;;;;;5031812;28;20040;-48
2023/05/28 05:02:55;;;;;;;10.77;4.70;;;12.50;99.90;;;;;;5032086;28;20040;-50
2023/05/28 05:05:22;;;;;;;10.05;4.32;;;12.50;99.90;;;;;;5031751;28;20044;-49
2023/05/28 05:07:48;;;;;;;12.30;4.28;;;12.60;99.90;;;;;;5031944;28;20037;-50
2023/05/28 05:10:14;;;;;;;9.37;3.80;;;12.60;99.90;;;;;;5033260;28;20032;-51
2023/05/28 05:12:40;;;;;;;10.15;4.68;;;12.70;99.90;;;;;;5035413;28;20078;-50
2023/05/28 05:15:08;;;;;;;11.05;3.90;;;12.70;99.90;;;;;;5018918;28;20153;-46
2023/05/28 05:17:34;;;;;;;11.85;4.15;;;12.70;99.90;;;;;;5035424;28;20029;-46
2023/05/28 05:20:03;;;;;;;10.85;4.10;;;12.80;99.90;;;;;;5035214;28;20029;-53
2023/05/28 05:22:30;;;;;;;10.73;4.80;;;12.90;99.90;;;;;;5035134;28;20035;-49
2023/05/28 05:24:56;;;;;;;10.38;4.13;;;13.00;99.90;;;;;;5035021;28;20037;-49
2023/05/28 05:27:22;;;;;;;9.57;4.13;;;13.00;99.90;;;;;;5035211;28;20028;-48
2023/05/28 05:29:48;;;;;;;9.13;4.13;;;13.10;99.90;;;;;;5035166;28;20123;-47
2023/05/28 05:32:14;;;;;;;11.13;4.88;;;13.20;99.90;;;;;;5034936;28;20047;-50
2023/05/28 05:34:40;;;;;;;10.35;4.50;;;13.30;99.90;;;;;;5034784;28;20029;-48
2023/05/28 05:37:29;;;;;;;11.23;4.82;;;13.30;99.90;;;;;;5044486;28;20041;-49
2023/05/28 05:40:13;;;;;;;7.97;3.97;;;13.40;99.90;;;;;;5052698;28;20122;-51
2023/05/28 05:43:02;;;;;;;10.55;4.13;;;13.50;99.90;;;;;;5041743;28;20048;-52
2023/05/28 05:45:28;;;;;;;10.27;4.55;;;13.60;99.90;;;;;;5034638;28;20036;-49
2023/05/28 05:47:55;;;;;;;13.32;5.07;;;13.70;99.90;;;;;;5034932;28;20033;-51
2023/05/28 05:50:21;;;;;;;10.55;4.57;;;13.80;99.90;;;;;;5034513;28;20116;-50
2023/05/28 05:52:48;;;;;;;10.77;4.40;;;13.90;99.90;;;;;;5034735;28;20106;-51
2023/05/28 05:55:14;;;;;;;10.65;4.35;;;14.00;99.90;;;;;;5034461;28;20501;-50
2023/05/28 05:57:41;;;;;;;7.82;4.25;;;14.00;99.90;;;;;;5052647;28;20037;-48
2023/05/28 06:00:10;;;;;;;9.93;4.35;;;14.10;99.90;;;;;;5034566;28;20060;-52
2023/05/28 06:02:47;;;;;;;10.25;4.20;;;14.20;99.90;;;;;;5034665;28;20041;-51
2023/05/28 06:05:45;;;;;;;10.13;4.35;;;14.30;99.90;;;;;;5007346;28;20040;-51
2023/05/28 06:08:29;;;;;;;10.55;4.32;;;14.50;99.90;;;;;;5052542;28;20043;-51
2023/05/28 06:11:01;;;;;;;11.60;4.30;;;14.60;99.90;;;;;;5034330;28;20033;-53
2023/05/28 06:13:27;;;;;;;11.15;4.78;;;14.70;99.90;;;;;;5052276;28;20033;-50
2023/05/28 06:15:52;;;;;;;9.55;4.47;;;14.70;99.90;;;;;;5017704;28;20577;-51
2023/05/28 06:18:18;;;;;;;10.80;4.47;;;14.80;99.90;;;;;;5034457;28;20029;-50
2023/05/28 06:20:45;;;;;;;11.13;4.80;;;15.00;99.90;;;;;;5033935;28;20032;-52
2023/05/28 06:23:11;;;;;;;9.15;4.20;;;15.10;99.90;;;;;;5034247;28;20021;-51
2023/05/28 06:25:38;;;;;;;7.78;4.30;;;15.20;99.90;;;;;;5034103;28;20025;-51
2023/05/28 06:28:05;;;;;;;10.88;4.13;;;15.30;99.90;;;;;;5034297;28;20052;-50
2023/05/28 06:30:31;;;;;;;10.93;5.03;;;15.40;99.90;;;;;;5033879;28;20021;-51
2023/05/28 06:32:58;;;;;;;12.52;4.20;;;15.60;99.90;;;;;;5033694;28;20082;-50
2023/05/28 06:35:23;;;;;;;14.02;4.55;;;15.70;99.90;;;;;;5033550;28;20028;-49
2023/05/28 06:37:50;;;;;;;10.18;4.15;;;15.80;99.90;;;;;;5034077;28;20485;-50
2023/05/28 06:40:16;;;;;;;9.82;4.35;;;15.90;99.90;;;;;;5033771;28;20025;-52
2023/05/28 06:42:42;;;;;;;9.40;4.85;;;16.00;99.90;;;;;;5033992;28;20025;-52
2023/05/28 06:45:32;;;;;;;8.60;4.30;;;16.00;99.90;;;;;;5066897;28;20054;-51
2023/05/28 06:48:00;;;;;;;8.77;4.05;;;16.20;99.90;;;;;;5034046;28;20482;-50
2023/05/28 06:50:26;;;;;;;10.13;4.03;;;16.30;99.90;;;;;;5066959;28;20555;-52
2023/05/28 06:52:53;;;;;;;8.65;4.10;;;16.40;99.90;;;;;;5067009;28;20104;-51
2023/05/28 06:55:20;;;;;;;8.52;3.88;;;16.60;99.90;;;;;;5033857;28;20421;-50
2023/05/28 06:58:05;;;;;;;9.00;4.63;;;16.70;99.90;;;;;;5050511;28;20072;-49
2023/05/28 07:01:03;;;;;;;11.73;5.28;;;16.80;99.90;;;;;;5066933;28;20086;-51
2023/05/28 07:03:51;;;;;;;11.23;4.57;;;17.00;99.90;;;;;;5066747;28;20032;-53
2023/05/28 07:06:38;;;;;;;8.65;4.10;;;17.10;99.90;;;;;;5033776;28;20056;-50
2023/05/28 07:09:06;;;;;;;11.93;4.35;;;17.30;99.90;;;;;;5033956;28;20025;-52
2023/05/28 07:11:32;;;;;;;9.57;4.20;;;17.40;99.90;;;;;;5033875;28;20029;-52
2023/05/28 07:13:58;;;;;;;8.30;4.35;;;17.60;99.90;;;;;;5033853;28;20044;-50
2023/05/28 07:16:25;;;;;;;7.35;3.33;;;17.70;99.90;;;;;;5033490;28;20025;-53
2023/05/28 07:18:51;;;;;;;10.73;4.13;;;17.90;99.90;;;;;;5033086;28;20555;-52
2023/05/28 07:21:17;;;;;;;8.30;3.95;;;18.10;99.90;;;;;;5032580;28;20090;-53
2023/05/28 07:23:45;;;;;;;12.10;4.40;;;18.30;99.90;;;;;;5029625;28;20025;-54
2023/05/28 07:26:11;;;;;;;8.73;3.88;;;18.50;99.90;;;;;;5032980;28;20017;-51
2023/05/28 07:28:37;;;;;;;9.57;3.97;;;18.60;99.90;;;;;;5032722;28;20025;-52
2023/05/28 07:31:03;;;;;;;6.35;3.28;;;18.70;99.90;;;;;;5053429;28;20040;-51
2023/05/28 07:33:29;;;;;;;9.32;3.75;;;18.80;99.90;;;;;;5035896;28;20025;-51
2023/05/28 07:35:56;;;;;;;7.55;3.38;;;18.90;99.90;;;;;;5036390;28;20409;-53
2023/05/28 07:38:22;;;;;;;8.98;3.83;;;18.90;99.90;;;;;;5053500;28;20031;-50
2023/05/28 07:40:51;;;;;;;7.57;3.50;;;19.10;99.90;;;;;;5036514;28;20454;-54
2023/05/28 07:43:34;;;;;;;8.88;3.97;;;19.10;99.90;;;;;;5034599;28;20463;-50
2023/05/28 07:46:05;;;;;;;6.95;3.28;;;19.10;99.90;;;;;;5038857;28;20060;-53
2023/05/28 07:48:43;;;;;;;10.20;4.00;;;19.20;99.60;;;;;;5035639;28;20501;-49
2023/05/28 07:51:18;;;;;;;8.40;3.38;;;19.20;99.90;;;;;;5050395;28;20032;-48
2023/05/28 07:53:48;;;;;;;9.98;3.72;;;19.20;99.90;;;;;;5032761;28;20116;-50
2023/05/28 07:56:19;;;;;;;5.57;3.03;;;19.40;99.90;;;;;;5032705;28;20032;-53
2023/05/28 07:58:46;;;;;;;6.17;3.03;;;19.50;99.80;;;;;;5033268;28;20083;-51
2023/05/28 08:01:15;;;;;;;6.32;2.83;;;19.50;99.80;;;;;;5032886;28;20439;-52
2023/05/28 08:03:41;;;;;;;8.20;3.28;;;19.50;99.30;;;;;;5032827;28;20037;-53
2023/05/28 08:06:08;;;;;;;6.60;3.00;;;19.60;98.70;;;;;;5033066;28;20036;-52
2023/05/28 08:08:35;;;;;;;6.82;2.47;;;19.70;99.90;;;;;;5033007;28;20048;-51
2023/05/28 08:11:02;;;;;;;7.03;2.70;;;19.70;99.40;;;;;;5032843;28;20033;-52
2023/05/28 08:13:28;;;;;;;5.82;2.67;;;19.80;98.80;;;;;;5032930;28;20025;-53
2023/05/28 08:15:55;;;;;;;5.10;2.70;;;19.80;98.20;;;;;;5032868;28;20037;-53
2023/05/28 08:18:22;;;;;;;6.57;3.23;;;19.90;98.50;;;;;;5032915;28;20115;-54
2023/05/28 08:20:48;;;;;;;7.95;2.97;;;20.00;98.50;;;;;;5032785;28;20444;-53
2023/05/28 08:23:22;;;;;;;6.55;2.67;;;20.00;98.10;;;;;;5032747;28;20032;-52
2023/05/28 08:25:50;;;;;;;8.80;2.75;;;20.10;98.50;;;;;;5032518;28;20035;-54
2023/05/28 08:28:23;;;;;;;6.57;2.88;;;20.20;98.70;;;;;;5032818;28;20036;-53
2023/05/28 08:30:50;;;;;;;6.47;2.70;;;20.30;96.80;;;;;;5032620;28;20393;-51
2023/05/28 08:33:51;;;;;;;5.43;2.22;;;20.30;97.20;;;;;;5032691;28;20033;-53
2023/05/28 08:36:18;;;;;;;8.70;2.75;;;20.50;97.30;;;;;;5032787;28;20036;-49
2023/05/28 08:38:46;;;;;;;6.55;2.40;;;20.60;96.90;;;;;;5032740;28;20505;-52
2023/05/28 08:41:13;;;;;;;6.25;2.30;;;20.60;96.60;;;;;;5032285;28;20037;-51
2023/05/28 08:43:38;;;;;;;5.95;2.80;;;20.60;95.70;;;;;;5032965;28;20029;-52
2023/05/28 08:46:05;;;;;;;6.88;2.92;;;20.70;97.70;;;;;;5036504;28;20150;-54
2023/05/28 08:48:41;;;;;;;8.18;2.97;;;20.80;96.70;;;;;;5036302;28;20531;-50
2023/05/28 08:51:06;;;;;;;6.53;2.88;;;20.80;96.70;;;;;;5036193;28;20027;-51
2023/05/28 08:53:47;;;;;;;7.03;3.05;;;20.90;97.00;;;;;;5036360;28;20035;-52
2023/05/28 08:56:17;;;;;;;6.72;2.20;;;21.00;97.10;;;;;;5036240;28;20555;-51
2023/05/28 08:58:44;;;;;;;6.68;2.40;;;21.10;94.60;;;;;;5035601;28;20033;-51
2023/05/28 09:01:10;;;;;;;8.48;3.33;;;21.20;96.70;;;;;;5036024;28;20029;-52
2023/05/28 09:03:55;;;;;;;4.38;2.03;;;21.30;97.50;;;;;;5036030;28;20047;-49
2023/05/28 09:06:31;;;;;;;5.95;1.95;;;21.40;94.40;;;;;;5035336;28;20108;-52
2023/05/28 09:08:58;;;;;;;6.28;2.50;;;21.50;95.30;;;;;;5036046;28;20082;-48
2023/05/28 09:12:09;;;;;;;4.55;2.30;;;21.60;94.80;;;;;;5042032;28;20025;-49
2023/05/28 09:14:42;;;;;;;5.15;2.38;;;21.70;93.10;;;;;;5035382;28;20029;-50
2023/05/28 09:17:09;;;;;;;6.05;2.10;;;21.80;93.10;;;;;;5067704;28;20033;-49
2023/05/28 09:19:36;;;;;;;7.13;2.78;;;21.90;92.80;;;;;;5034956;28;20048;-51
2023/05/28 09:22:03;;;;;;;6.13;2.13;;;22.00;92.80;;;;;;5068325;28;20159;-51
2023/05/28 09:24:38;;;;;;;6.38;2.25;;;21.90;93.20;;;;;;5068372;28;20052;-49
2023/05/28 09:27:27;;;;;;;5.15;2.50;;;22.00;94.50;;;;;;5024267;28;20552;-52
2023/05/28 09:29:54;;;;;;;6.30;1.98;;;22.00;91.60;;;;;;5035220;28;20028;-53
2023/05/28 09:32:20;;;;;;;5.25;2.00;;;22.10;92.80;;;;;;5052741;28;20021;-52
2023/05/28 09:34:48;;;;;;;6.22;2.03;;;22.00;91.90;;;;;;5053267;28;20029;-53
2023/05/28 09:37:16;;;;;;;6.15;2.65;;;22.10;92.90;;;;;;5053153;28;20033;-53
2023/05/28 09:39:42;;;;;;;6.10;2.25;;;22.20;92.00;;;;;;5053069;28;20040;-53
2023/05/28 09:42:12;;;;;;;6.57;2.40;;;22.30;91.30;;;;;;5052685;28;20075;-48
2023/05/28 09:44:40;;;;;;;5.78;2.17;;;22.30;90.70;;;;;;5052670;28;20039;-52
2023/05/28 09:47:14;;;;;;;5.55;1.90;;;22.30;91.40;;;;;;5052870;28;20029;-51
2023/05/28 09:49:43;;;;;;;8.27;2.00;;;22.40;90.70;;;;;;5052821;28;20473;-50
2023/05/28 09:52:13;;;;;;;4.32;1.80;;;22.40;90.50;;;;;;5052480;28;20036;-51
2023/05/28 09:54:39;;;;;;;7.45;2.42;;;22.30;92.40;;;;;;5052543;28;20452;-51
2023/05/28 09:57:09;;;;;;;5.38;1.88;;;22.40;90.60;;;;;;5051922;28;20033;-52
2023/05/28 09:59:38;;;;;;;5.20;2.00;;;22.50;90.30;;;;;;5052523;28;20481;-52
2023/05/28 10:02:42;;;;;;;6.32;2.20;;;22.50;90.00;;;;;;5052659;28;20033;-50
2023/05/28 10:05:10;;;;;;;6.32;1.95;;;22.50;88.50;;;;;;5049117;28;20370;-53
2023/05/28 10:07:40;;;;;;;7.72;2.30;;;22.50;91.40;;;;;;5052838;28;20029;-52
2023/05/28 10:10:08;;;;;;;6.72;2.15;;;22.60;90.00;;;;;;5052338;28;20048;-51
2023/05/28 10:12:33;;;;;;;4.97;2.35;;;22.70;88.20;;;;;;5052334;28;20029;-53
2023/05/28 10:15:00;;;;;;;4.60;1.85;;;22.80;88.50;;;;;;5052259;28;20120;-51
2023/05/28 10:17:26;;;;;;;5.18;2.20;;;22.80;86.60;;;;;;5052405;28;20031;-49
2023/05/28 10:19:52;;;;;;;5.20;1.90;;;22.80;86.80;;;;;;5052265;28;20029;-50
2023/05/28 10:22:18;;;;;;;5.45;2.13;;;22.90;87.90;;;;;;5052155;28;20051;-51
2023/05/28 10:24:45;;;;;;;7.93;1.95;;;22.90;89.30;;;;;;5051901;28;20502;-51
2023/05/28 10:27:18;;;;;;;5.05;2.42;;;22.80;88.50;;;;;;5052165;28;20493;-49
2023/05/28 10:29:48;;;;;;;5.40;1.95;;;23.00;83.60;;;;;;5052134;28;20025;-51
2023/05/28 10:32:17;;;;;;;5.10;2.28;;;23.00;86.30;;;;;;5052005;28;20512;-52
2023/05/28 10:34:43;;;;;;;5.10;2.53;;;23.10;85.50;;;;;;5052117;28;20040;-50
2023/05/28 10:37:10;;;;;;;4.47;2.33;;;23.20;84.00;;;;;;5052255;28;20043;-47
2023/05/28 10:39:45;;;;;;;5.70;2.67;;;23.30;83.60;;;;;;5052123;28;20373;-48
2023/05/28 10:42:20;;;;;;;5.78;1.98;;;23.40;84.20;;;;;;5051619;28;20506;-51
2023/05/28 10:45:06;;;;;;;5.20;1.98;;;23.30;79.00;;;;;;5033573;28;20044;-48
2023/05/28 10:47:40;;;;;;;5.13;2.00;;;23.20;82.60;;;;;;5051855;28;20242;-51
2023/05/28 10:50:08;;;;;;;5.43;2.13;;;23.20;85.30;;;;;;5051574;28;20116;-50
2023/05/28 10:52:35;;;;;;;4.78;2.20;;;23.20;83.70;;;;;;5051371;28;20052;-52
2023/05/28 10:55:07;;;;;;;6.68;2.72;;;23.20;84.80;;;;;;5051484;28;20103;-52
2023/05/28 10:58:04;;;;;;;3.90;2.08;;;23.30;83.00;;;;;;5051359;28;20041;-52
2023/05/28 11:00:30;;;;;;;5.88;2.30;;;23.40;81.30;;;;;;5051144;28;20079;-49
2023/05/28 11:02:56;;;;;;;4.25;2.05;;;23.40;79.30;;;;;;5051449;28;20028;-48
2023/05/28 11:05:25;;;;;;;4.25;2.05;;;23.40;78.50;;;;;;5051287;28;20389;-51
2023/05/28 11:07:52;;;;;;;5.07;2.20;;;23.40;79.80;;;;;;5050438;28;20143;-52
2023/05/28 11:10:18;;;;;;;6.80;2.90;;;23.50;82.00;;;;;;5033169;28;20032;-52
2023/05/28 11:12:47;;;;;;;5.22;2.63;;;23.70;82.10;;;;;;5051189;28;20036;-52
2023/05/28 11:15:14;;;;;;;6.93;1.90;;;23.70;77.60;;;;;;5050897;28;20116;-52
2023/05/28 11:17:41;;;;;;;4.72;2.08;;;23.70;78.90;;;;;;5051266;28;20065;-49
2023/05/28 11:20:27;;;;;;;4.55;1.92;;;23.70;77.50;;;;;;5050983;28;20033;-52
2023/05/28 11:22:54;;;;;;;4.18;1.70;;;23.60;78.40;;;;;;5051208;28;20514;-52
2023/05/28 11:25:22;;;;;;;4.43;1.90;;;23.60;78.70;;;;;;5050684;28;20032;-47
2023/05/28 11:27:50;;;;;;;4.75;1.75;;;23.60;77.10;;;;;;5050832;28;20534;-51
2023/05/28 11:30:17;;;;;;;3.75;1.75;;;23.60;76.40;;;;;;5050920;28;20101;-51
2023/05/28 11:32:45;;;;;;;4.07;1.98;;;23.60;78.20;;;;;;5050862;28;20089;-52
2023/05/28 11:35:12;;;;;;;6.13;2.10;;;23.40;76.80;;;;;;5050642;28;20029;-52
2023/05/28 11:37:39;;;;;;;4.82;1.88;;;23.40;77.20;;;;;;5051014;28;20037;-52
2023/05/28 11:40:09;;;;;;;11.88;4.13;;;23.40;78.30;;;;;;5050924;28;20029;-52
2023/05/28 11:42:39;;;;;;;5.65;1.92;;;23.40;78.10;;;;;;5050489;28;20489;-51
2023/05/28 11:45:06;;;;;;;4.82;2.08;;;23.50;77.70;;;;;;5050476;28;20025;-50
2023/05/28 11:47:33;;;;;;;6.93;2.40;;;23.40;77.90;;;;;;5050732;28;20448;-49
2023/05/28 11:50:05;;;;;;;7.20;2.22;;;23.40;77.50;;;;;;5050632;28;20036;-49
2023/05/28 11:52:30;;;;;;;5.22;2.22;;;23.40;78.00;;;;;;5050707;28;20385;-52
2023/05/28 11:54:58;;;;;;;3.58;1.90;;;23.40;75.80;;;;;;5050449;28;20029;-46
2023/05/28 11:57:28;;;;;;;4.18;1.90;;;23.40;77.00;;;;;;5050545;28;20108;-53
2023/05/28 12:00:05;;;;;;;7.15;3.33;;;23.50;77.00;;;;;;5050527;28;20025;-52
2023/05/28 12:02:45;;;;;;;5.43;2.80;;;23.60;77.80;;;;;;5050445;28;20086;-50
2023/05/28 12:05:11;;;;;;;5.97;2.65;;;23.80;78.60;;;;;;5050406;28;20128;-51
2023/05/28 12:07:37;;;;;;;5.82;2.33;;;23.90;77.60;;;;;;5050368;28;20029;-52
2023/05/28 12:10:11;;;;;;;6.40;2.10;;;24.00;75.80;;;;;;5050434;28;20032;-51
2023/05/28 12:12:46;;;;;;;5.43;2.00;;;23.90;78.50;;;;;;5050172;28;20033;-48
2023/05/28 12:15:13;;;;;;;6.15;2.13;;;24.00;78.00;;;;;;5050413;28;20399;-52
2023/05/28 12:17:43;;;;;;;4.30;2.20;;;24.10;75.60;;;;;;5050492;28;20087;-52
2023/05/28 12:20:12;;;;;;;4.72;1.90;;;24.00;77.20;;;;;;5053628;28;20029;-52
2023/05/28 12:22:39;;;;;;;3.40;1.80;;;24.00;75.70;;;;;;5054232;28;20029;-51
2023/05/28 12:25:06;;;;;;;3.65;1.83;;;24.00;75.30;;;;;;5054024;28;20036;-49
2023/05/28 12:27:32;;;;;;;6.80;2.30;;;24.00;74.10;;;;;;5054395;28;20044;-48
2023/05/28 12:29:58;;;;;;;4.65;1.80;;;23.90;73.60;;;;;;5054189;28;20021;-49
2023/05/28 12:32:24;;;;;;;6.35;1.80;;;23.90;74.40;;;;;;5054181;28;20388;-49
2023/05/28 12:34:51;;;;;;;4.70;2.20;;;23.90;74.30;;;;;;5054223;28;20029;-50
2023/05/28 12:37:18;;;;;;;5.38;1.90;;;24.00;75.00;;;;;;5054694;28;20028;-51
2023/05/28 12:39:44;;;;;;;4.35;2.13;;;24.00;74.20;;;;;;5054150;28;20408;-52
2023/05/28 12:42:10;;;;;;;5.07;2.13;;;24.10;76.40;;;;;;5053840;28;20032;-48
2023/05/28 12:44:36;;;;;;;5.47;1.95;;;24.00;75.80;;;;;;5054030;28;20056;-51
2023/05/28 12:47:01;;;;;;;4.10;1.88;;;24.00;75.40;;;;;;5054095;28;20056;-48
2023/05/28 12:49:27;;;;;;;5.18;2.40;;;24.10;77.40;;;;;;5054094;28;20021;-49
2023/05/28 12:51:53;;;;;;;3.47;1.80;;;24.20;76.20;;;;;;5053733;28;20036;-49
2023/05/28 12:54:19;;;;;;;4.50;2.03;;;24.30;74.10;;;;;;5053789;28;20039;-53